Time;durP1;ratioP1;P1;durP2;ratioP2;P2;SDS_P1;SDS_P2;PMS_P1;PMS_P2;Temp;Humidity;BMP_temperature;BMP_pressure;BME280_temperature;BME280_humidity;BME280_pressure;Samples;Min_cycle;Max_cycle;Signal;HPM_P1;HPM_P2
2023/07/04 00:00:10;;;;;;;22.55;4.95;;;;;;;15.20;84.96;100926.06;5055749;28;20024;-75
2023/07/04 00:02:35;;;;;;;13.70;3.78;;;;;;;15.15;83.42;100913.94;5054704;28;20115;-74
2023/07/04 00:05:03;;;;;;;19.10;4.85;;;;;;;15.16;83.95;100916.50;5058812;28;20080;-75
2023/07/04 00:07:28;;;;;;;21.98;5.38;;;;;;;15.15;84.17;100913.94;5062808;28;20017;-74
2023/07/04 00:09:54;;;;;;;20.38;5.25;;;;;;;15.14;84.99;100917.66;5057815;28;20043;-74
2023/07/04 00:12:19;;;;;;;22.10;4.60;;;;;;;15.13;84.40;100918.66;5063361;28;20029;-74
2023/07/04 00:14:45;;;;;;;18.27;4.50;;;;;;;15.12;84.80;100914.25;5054631;28;20136;-74
2023/07/04 00:17:10;;;;;;;19.38;5.30;;;;;;;15.10;85.08;100910.81;5064058;28;20115;-74
2023/07/04 00:19:35;;;;;;;27.02;5.45;;;;;;;15.11;84.37;100907.97;5065077;28;20540;-74
2023/07/04 00:22:02;;;;;;;18.40;4.47;;;;;;;15.10;85.14;100908.97;5083765;28;20438;-74
2023/07/04 00:24:27;;;;;;;19.85;4.50;;;;;;;15.10;86.53;100908.13;5073830;28;20031;-74
2023/07/04 00:26:56;;;;;;;20.27;4.53;;;;;;;15.08;86.82;100915.50;5086078;28;20074;-74
2023/07/04 00:29:22;;;;;;;23.73;6.53;;;;;;;15.09;84.66;100909.09;5079800;28;20178;-73
2023/07/04 00:31:47;;;;;;;18.98;5.95;;;;;;;15.07;85.31;100905.69;5087704;28;20149;-74
2023/07/04 00:34:14;;;;;;;23.23;4.97;;;;;;;15.06;85.76;100912.94;5065743;28;20028;-73
2023/07/04 00:36:39;;;;;;;20.65;5.03;;;;;;;15.06;86.35;100912.09;5083049;28;20083;-74
2023/07/04 00:39:05;;;;;;;18.20;4.75;;;;;;;15.07;86.32;100914.66;5062985;28;20210;-74
2023/07/04 00:41:31;;;;;;;18.80;5.22;;;;;;;15.10;86.28;100905.41;5059928;28;20032;-74
2023/07/04 00:44:01;;;;;;;18.83;4.97;;;;;;;15.05;86.02;100911.22;5083469;28;20020;-75
2023/07/04 00:46:37;;;;;;;21.92;4.80;;;;;;;15.05;85.58;100913.94;5059339;28;20028;-74
2023/07/04 00:49:18;;;;;;;21.92;5.00;;;;;;;15.08;85.85;100912.81;5077283;28;20017;-73
2023/07/04 00:52:11;;;;;;;32.40;5.90;;;;;;;15.08;85.94;100920.91;5081262;28;20028;-73
2023/07/04 00:54:45;;;;;;;25.08;5.45;;;;;;;15.07;85.65;100911.13;5075040;28;20043;-74
2023/07/04 00:57:13;;;;;;;22.73;5.25;;;;;;;15.08;86.11;100907.38;5080220;28;20029;-74
2023/07/04 00:59:45;;;;;;;20.08;5.57;;;;;;;15.09;86.77;100904.53;5080900;28;20135;-74
2023/07/04 01:02:21;;;;;;;21.98;5.32;;;;;;;15.10;87.81;100910.81;5072317;28;20085;-75
2023/07/04 01:04:48;;;;;;;21.98;5.70;;;;;;;15.07;86.29;100927.34;5054173;28;20039;-75
2023/07/04 01:07:30;;;;;;;19.90;4.28;;;;;;;15.08;86.01;100920.91;5080750;28;20478;-75
2023/07/04 01:10:02;;;;;;;20.40;4.90;;;;;;;15.09;86.52;100917.22;5074712;28;20028;-76
2023/07/04 01:12:29;;;;;;;21.98;4.72;;;;;;;15.09;86.53;100920.78;5076789;28;20052;-75
2023/07/04 01:14:59;;;;;;;20.33;5.43;;;;;;;15.09;87.18;100917.22;5077067;28;20028;-75
2023/07/04 01:17:25;;;;;;;21.15;5.55;;;;;;;15.08;86.66;100919.09;5078754;28;20131;-75
2023/07/04 01:19:51;;;;;;;20.38;4.93;;;;;;;15.07;87.08;100919.22;5060200;28;20103;-75
2023/07/04 01:22:27;;;;;;;24.17;5.18;;;;;;;15.06;86.75;100925.63;5063289;28;20525;-75
2023/07/04 01:25:09;;;;;;;20.42;5.47;;;;;;;15.05;87.50;100921.22;5049958;28;20512;-76
2023/07/04 01:27:36;;;;;;;20.85;5.93;;;;;;;15.05;87.78;100935.59;5081931;28;20509;-75
2023/07/04 01:30:04;;;;;;;23.20;4.93;;;;;;;15.03;87.71;100922.19;5071279;28;20024;-75
2023/07/04 01:32:31;;;;;;;20.05;4.82;;;;;;;15.03;87.46;100930.31;5073037;28;20533;-76
2023/07/04 01:35:00;;;;;;;17.02;5.57;;;;;;;14.99;87.56;100920.78;5071389;28;20039;-75
2023/07/04 01:37:29;;;;;;;24.98;6.05;;;;;;;14.98;88.02;100929.88;5059346;28;20044;-75
2023/07/04 01:39:54;;;;;;;24.10;5.35;;;;;;;14.97;87.97;100922.75;5054592;28;20055;-75
2023/07/04 01:42:20;;;;;;;23.67;5.30;;;;;;;14.95;87.95;100927.47;5063472;28;20063;-75
2023/07/04 01:44:46;;;;;;;21.30;5.75;;;;;;;14.95;88.18;100929.28;5056504;28;20120;-75
2023/07/04 01:47:11;;;;;;;21.55;6.20;;;;;;;14.95;87.80;100932.00;5078840;28;20071;-75
2023/07/04 01:49:36;;;;;;;19.38;5.38;;;;;;;14.93;88.15;100926.72;5061942;28;20082;-75
2023/07/04 01:52:02;;;;;;;21.08;5.72;;;;;;;14.95;88.34;100927.47;5059198;28;20024;-75
2023/07/04 01:54:27;;;;;;;21.98;5.10;;;;;;;14.96;88.43;100926.44;5053155;28;20035;-75
2023/07/04 01:56:53;;;;;;;22.33;5.13;;;;;;;14.94;88.69;100917.63;5077174;28;20036;-75
2023/07/04 01:59:20;;;;;;;25.42;6.35;;;;;;;14.95;88.80;100924.75;5059675;28;20036;-76
2023/07/04 02:01:45;;;;;;;18.58;5.13;;;;;;;14.94;88.81;100928.44;5061050;28;20025;-75
2023/07/04 02:04:11;;;;;;;19.45;5.25;;;;;;;14.98;89.17;100929.03;5059117;28;20032;-75
2023/07/04 02:06:36;;;;;;;19.88;5.65;;;;;;;15.02;89.50;100919.63;5060282;28;20035;-75
2023/07/04 02:09:01;;;;;;;25.17;5.32;;;;;;;15.00;89.42;100914.34;5054920;28;20059;-75
2023/07/04 02:11:27;;;;;;;28.25;6.00;;;;;;;15.08;89.86;100920.91;5059485;28;20210;-75
2023/07/04 02:13:52;;;;;;;22.05;5.65;;;;;;;15.07;88.98;100916.53;5070271;28;20027;-75
2023/07/04 02:16:17;;;;;;;21.02;5.22;;;;;;;15.07;89.67;100917.38;5077499;28;20127;-75
2023/07/04 02:18:43;;;;;;;18.33;5.90;;;;;;;15.06;89.38;100912.09;5082379;28;20047;-75
2023/07/04 02:21:08;;;;;;;21.67;5.88;;;;;;;15.08;89.61;100915.50;5080644;28;20062;-75
2023/07/04 02:23:33;;;;;;;20.88;6.57;;;;;;;15.09;89.04;100912.66;5086810;28;20144;-75
2023/07/04 02:25:59;;;;;;;22.75;6.15;;;;;;;15.11;90.03;100912.53;5079780;28;20452;-75
2023/07/04 02:28:24;;;;;;;26.70;6.43;;;;;;;15.12;89.76;100915.09;5062399;28;20471;-75
2023/07/04 02:30:57;;;;;;;24.00;5.53;;;;;;;15.12;89.55;100928.63;5079794;28;20416;-75
2023/07/04 02:33:23;;;;;;;21.05;6.47;;;;;;;15.15;90.53;100922.06;5061728;28;20039;-75
2023/07/04 02:35:49;;;;;;;24.42;5.63;;;;;;;15.13;91.37;100910.53;5059716;28;20031;-75
2023/07/04 02:38:15;;;;;;;18.40;5.30;;;;;;;15.13;91.50;100915.97;5084345;28;20036;-75
2023/07/04 02:40:45;;;;;;;23.23;6.20;;;;;;;15.12;91.98;100931.31;5077133;28;20024;-76
2023/07/04 02:43:11;;;;;;;21.48;5.88;;;;;;;15.08;94.04;100934.47;5086289;28;20054;-76
2023/07/04 02:45:37;;;;;;;21.67;6.28;;;;;;;15.01;97.46;100928.75;5072723;28;20063;-76
2023/07/04 02:48:02;;;;;;;23.77;6.78;;;;;;;14.91;97.78;100925.19;5083272;28;20052;-76
2023/07/04 02:50:27;;;;;;;20.33;6.07;;;;;;;14.78;98.94;100928.13;5076325;28;20552;-77
2023/07/04 02:52:53;;;;;;;18.67;5.70;;;;;;;14.63;95.89;100923.09;5084286;28;20038;-76
2023/07/04 02:55:18;;;;;;;15.25;4.53;;;;;;;14.50;97.07;100922.47;5074698;28;20039;-76
2023/07/04 02:57:43;;;;;;;24.85;5.90;;;;;;;14.42;99.69;100922.25;5060791;28;20043;-77
2023/07/04 03:00:09;;;;;;;21.75;5.80;;;;;;;14.34;99.24;100925.66;5065063;28;20035;-76
2023/07/04 03:02:35;;;;;;;22.25;5.22;;;;;;;14.27;99.53;100921.78;5053384;28;20044;-77
2023/07/04 03:05:00;;;;;;;24.00;6.05;;;;;;;14.21;100.00;100927.72;5078595;28;20051;-77
2023/07/04 03:07:26;;;;;;;19.45;5.97;;;;;;;14.15;100.00;100923.72;5071499;28;20142;-76
2023/07/04 03:09:51;;;;;;;23.63;6.90;;;;;;;14.13;100.00;100925.72;5076279;28;20586;-77
2023/07/04 03:12:16;;;;;;;18.42;6.25;;;;;;;14.09;100.00;100935.91;5071845;28;20107;-77
2023/07/04 03:14:42;;;;;;;17.73;5.55;;;;;;;14.08;100.00;100933.34;5077363;28;20021;-77
2023/07/04 03:17:07;;;;;;;23.27;6.45;;;;;;;14.05;100.00;100930.91;5077223;28;20042;-77
2023/07/04 03:19:32;;;;;;;22.70;6.20;;;;;;;14.05;100.00;100936.31;5079399;28;20112;-77
2023/07/04 03:21:58;;;;;;;23.80;6.47;;;;;;;14.01;100.00;100924.91;5069654;28;20047;-78
2023/07/04 03:24:23;;;;;;;23.73;5.65;;;;;;;13.99;100.00;100930.44;5059937;28;20031;-77
2023/07/04 03:26:48;;;;;;;21.88;5.30;;;;;;;13.95;100.00;100934.41;5054239;28;20020;-77
2023/07/04 03:29:14;;;;;;;24.38;6.60;;;;;;;13.94;100.00;100935.41;5067233;28;20051;-77
2023/07/04 03:31:39;;;;;;;23.38;5.95;;;;;;;13.88;100.00;100941.34;5053765;28;20446;-77
2023/07/04 03:34:04;;;;;;;22.60;5.65;;;;;;;13.86;100.00;100935.19;5068232;28;20033;-77
2023/07/04 03:36:30;;;;;;;24.00;7.22;;;;;;;13.83;100.00;100940.00;5057204;28;20020;-77
2023/07/04 03:38:55;;;;;;;22.35;6.00;;;;;;;13.83;100.00;100943.56;5068103;28;20024;-77
2023/07/04 03:41:20;;;;;;;25.95;6.30;;;;;;;13.82;100.00;100939.13;5072528;28;20059;-77
2023/07/04 03:43:46;;;;;;;21.13;5.78;;;;;;;13.79;100.00;100934.88;5080244;28;20100;-77
2023/07/04 03:46:11;;;;;;;24.92;6.47;;;;;;;13.77;100.00;100933.28;5058370;28;20054;-77
2023/07/04 03:48:37;;;;;;;25.70;6.55;;;;;;;13.76;100.00;100942.38;5062278;28;20047;-77
2023/07/04 03:51:02;;;;;;;20.70;5.68;;;;;;;13.77;100.00;100941.38;5056910;28;20028;-78
2023/07/04 03:53:28;;;;;;;20.08;5.95;;;;;;;13.76;100.00;100932.44;5078872;28;20426;-77
2023/07/04 03:55:53;;;;;;;25.25;5.57;;;;;;;13.77;100.00;100936.84;5077537;28;20392;-77
2023/07/04 03:58:18;;;;;;;25.85;6.03;;;;;;;13.76;100.00;100936.97;5061378;28;20086;-77
2023/07/04 04:00:47;;;;;;;24.48;5.38;;;;;;;13.76;100.00;100936.97;5060177;28;20052;-77
2023/07/04 04:03:12;;;;;;;24.92;5.93;;;;;;;13.75;100.00;100936.13;5053396;28;20429;-78
2023/07/04 04:05:38;;;;;;;27.48;6.18;;;;;;;13.75;100.00;100946.94;5072810;28;20028;-77
2023/07/04 04:08:04;;;;;;;24.35;6.20;;;;;;;13.76;100.00;100953.19;5078625;28;20025;-78
2023/07/04 04:10:29;;;;;;;26.23;5.95;;;;;;;13.77;100.00;100949.50;5058430;28;20345;-78
2023/07/04 04:12:55;;;;;;;22.40;5.80;;;;;;;13.80;100.00;100949.22;5075984;28;20039;-78
2023/07/04 04:15:20;;;;;;;22.40;5.47;;;;;;;13.81;100.00;100941.00;5053421;28;20059;-78
2023/07/04 04:17:45;;;;;;;20.38;5.18;;;;;;;13.81;100.00;100943.69;5056679;28;20067;-78
2023/07/04 04:20:11;;;;;;;24.38;6.28;;;;;;;13.82;100.00;100941.84;5078866;28;20052;-78
2023/07/04 04:22:39;;;;;;;22.23;5.80;;;;;;;13.84;100.00;100955.25;5055246;28;20105;-78
2023/07/04 04:25:05;;;;;;;25.52;6.25;;;;;;;13.84;100.00;100950.69;5054050;28;20068;-78
2023/07/04 04:27:31;;;;;;;19.88;6.20;;;;;;;13.85;100.00;100951.53;5065123;28;20043;-78
2023/07/04 04:29:56;;;;;;;24.65;6.55;;;;;;;13.89;100.00;100951.13;5055497;28;20024;-78
2023/07/04 04:32:22;;;;;;;20.15;6.10;;;;;;;13.91;100.00;100951.00;5056818;28;20555;-78
2023/07/04 04:34:48;;;;;;;27.13;6.20;;;;;;;13.91;100.00;100965.38;5081005;28;20036;-78
2023/07/04 04:37:13;;;;;;;23.10;6.15;;;;;;;13.90;100.00;100960.13;5053944;28;20024;-78
2023/07/04 04:39:38;;;;;;;23.95;6.95;;;;;;;13.92;100.00;100972.47;5078135;28;20028;-79
2023/07/04 04:42:04;;;;;;;23.30;5.55;;;;;;;13.92;100.00;100972.47;5079308;28;20099;-78
2023/07/04 04:44:29;;;;;;;29.40;6.70;;;;;;;13.93;100.00;100974.19;5058264;28;20028;-77
2023/07/04 04:46:55;;;;;;;22.70;6.15;;;;;;;13.96;100.00;100976.66;5059679;28;20023;-78
2023/07/04 04:49:21;;;;;;;22.02;6.78;;;;;;;13.97;100.00;100972.97;5072400;28;20103;-78
2023/07/04 04:51:48;;;;;;;23.90;6.75;;;;;;;13.98;100.00;100963.00;5059226;28;20556;-78
2023/07/04 04:54:14;;;;;;;24.70;7.03;;;;;;;13.99;100.00;100960.16;5051905;28;20388;-79
2023/07/04 04:56:44;;;;;;;25.10;6.88;;;;;;;14.05;100.00;100968.75;5056672;28;20035;-78
2023/07/04 04:59:09;;;;;;;23.80;6.60;;;;;;;14.08;100.00;100980.13;5076055;28;20115;-77
2023/07/04 05:01:36;;;;;;;23.60;7.03;;;;;;;14.11;100.00;100979.03;5075460;28;20471;-78
2023/07/04 05:04:02;;;;;;;24.50;6.53;;;;;;;14.12;100.00;100972.63;5080494;28;20502;-78
2023/07/04 05:06:27;;;;;;;20.02;5.53;;;;;;;14.15;100.00;100969.66;5071252;28;20098;-78
2023/07/04 05:08:53;;;;;;;26.05;7.10;;;;;;;14.19;100.00;100978.34;5073907;28;20037;-78
2023/07/04 05:11:19;;;;;;;22.98;7.15;;;;;;;14.22;100.00;100984.34;5067793;28;20039;-78
2023/07/04 05:13:45;;;;;;;24.58;6.03;;;;;;;14.25;100.00;100980.53;5061000;28;20132;-78
2023/07/04 05:16:13;;;;;;;23.88;6.70;;;;;;;14.27;100.00;100986.66;5071407;28;20101;-78
2023/07/04 05:18:40;;;;;;;25.77;7.45;;;;;;;14.30;100.00;100986.38;5078433;28;20554;-78
2023/07/04 05:21:11;;;;;;;21.95;6.40;;;;;;;14.30;100.00;100979.13;5076962;28;20039;-78
2023/07/04 05:23:40;;;;;;;24.65;6.00;;;;;;;14.32;100.00;100979.88;5067969;28;20051;-78
2023/07/04 05:26:08;;;;;;;21.27;5.90;;;;;;;14.34;100.00;100995.94;5053554;28;20024;-77
2023/07/04 05:28:34;;;;;;;26.90;7.03;;;;;;;14.34;100.00;100985.13;5057130;28;20070;-78
2023/07/04 05:31:02;;;;;;;21.25;6.30;;;;;;;14.37;100.00;100994.84;5061855;28;20414;-78
2023/07/04 05:33:28;;;;;;;30.50;6.30;;;;;;;14.40;100.00;100994.56;5054217;28;20035;-79
2023/07/04 05:36:15;;;;;;;23.75;6.38;;;;;;;14.43;100.00;100997.00;5054496;28;20050;-78
2023/07/04 05:38:41;;;;;;;26.30;6.40;;;;;;;14.46;100.00;100997.56;5064491;28;20025;-78
2023/07/04 05:41:09;;;;;;;27.38;6.88;;;;;;;14.50;100.00;100990.06;5079099;28;20384;-78
2023/07/04 05:43:34;;;;;;;24.88;6.25;;;;;;;14.54;100.00;100996.91;5066165;28;20236;-78
2023/07/04 05:46:00;;;;;;;25.63;6.15;;;;;;;14.57;100.00;100995.78;5088808;28;20028;-76
2023/07/04 05:48:25;;;;;;;24.60;5.93;;;;;;;14.63;100.00;100990.72;5075817;28;20207;-79
2023/07/04 05:50:50;;;;;;;24.80;6.63;;;;;;;14.64;100.00;100995.16;5099147;28;20194;-76
2023/07/04 05:53:17;;;;;;;21.38;5.72;;;;;;;14.71;100.00;100997.31;5077619;28;20083;-76
2023/07/04 05:55:42;;;;;;;22.30;6.88;;;;;;;14.74;100.00;100995.16;5081578;28;20043;-76
2023/07/04 05:58:07;;;;;;;31.25;6.82;;;;;;;14.80;100.00;100997.34;5093551;28;20032;-79
2023/07/04 06:00:34;;;;;;;28.33;6.00;;;;;;;14.85;100.00;100997.78;5091270;28;20027;-76
2023/07/04 06:03:03;;;;;;;28.30;6.60;;;;;;;14.90;100.00;100997.38;5098261;28;20399;-78
2023/07/04 06:05:29;;;;;;;23.60;6.20;;;;;;;14.92;100.00;100997.22;5081442;28;20080;-78
2023/07/04 06:07:54;;;;;;;30.08;7.15;;;;;;;14.98;100.00;100997.56;5090878;28;20029;-78
2023/07/04 06:10:20;;;;;;;20.67;6.28;;;;;;;14.99;100.00;101007.41;5092429;28;20036;-76
2023/07/04 06:12:45;;;;;;;25.10;7.18;;;;;;;15.00;100.00;101003.66;5095130;28;20023;-76
2023/07/04 06:15:11;;;;;;;25.13;6.18;;;;;;;15.05;100.00;101005.97;5080854;28;20119;-78
2023/07/04 06:17:36;;;;;;;25.02;6.60;;;;;;;15.12;100.00;101006.28;5095573;28;20104;-78
2023/07/04 06:20:01;;;;;;;22.80;6.38;;;;;;;15.17;100.00;101015.69;5085873;28;20012;-76
2023/07/04 06:22:27;;;;;;;24.17;6.28;;;;;;;15.22;99.51;101014.44;5086127;28;20079;-77
2023/07/04 06:24:52;;;;;;;22.80;5.40;;;;;;;15.26;99.56;101015.88;5079567;28;20080;-77
2023/07/04 06:27:18;;;;;;;25.27;6.05;;;;;;;15.32;100.00;101018.88;5102624;28;20043;-76
2023/07/04 06:29:46;;;;;;;29.20;6.78;;;;;;;15.36;98.78;101016.75;5098992;28;20021;-76
2023/07/04 06:32:12;;;;;;;24.58;6.22;;;;;;;15.41;99.29;101010.91;5097775;28;20131;-77
2023/07/04 06:34:37;;;;;;;27.00;6.18;;;;;;;15.46;97.79;101022.16;5106937;28;20008;-77
2023/07/04 06:37:03;;;;;;;26.58;6.30;;;;;;;15.49;96.13;101017.34;5081907;28;20111;-76
2023/07/04 06:39:28;;;;;;;28.10;6.30;;;;;;;15.55;95.37;101014.06;5078950;28;20032;-76
2023/07/04 06:41:54;;;;;;;19.38;4.80;;;;;;;15.63;94.14;101018.75;5079827;28;20036;-76
2023/07/04 06:44:19;;;;;;;22.17;5.30;;;;;;;15.69;92.05;101031.75;5088488;28;20035;-76
2023/07/04 06:46:44;;;;;;;22.35;4.82;;;;;;;15.78;92.89;101031.91;5068376;28;20051;-79
2023/07/04 06:49:10;;;;;;;18.38;5.07;;;;;;;15.82;91.44;101036.06;5095250;28;20464;-76
2023/07/04 06:51:35;;;;;;;24.08;6.00;;;;;;;15.86;91.22;101032.09;5094704;28;20040;-75
2023/07/04 06:54:01;;;;;;;20.77;5.32;;;;;;;15.92;90.96;101031.50;5094863;28;20033;-76
2023/07/04 06:56:26;;;;;;;20.80;5.80;;;;;;;15.94;89.42;101039.50;5080351;28;20033;-76
2023/07/04 06:58:54;;;;;;;25.20;6.03;;;;;;;15.98;87.02;101049.91;5068963;28;20039;-76
2023/07/04 07:01:26;;;;;;;19.67;4.88;;;;;;;16.02;88.45;101043.19;5093962;28;20036;-76
2023/07/04 07:03:52;;;;;;;21.35;5.47;;;;;;;16.05;84.62;101052.91;5060811;28;20158;-78
2023/07/04 07:06:17;;;;;;;20.40;4.55;;;;;;;16.04;84.43;101060.16;5091963;28;20604;-74
2023/07/04 07:08:42;;;;;;;18.70;4.57;;;;;;;16.07;82.31;101050.91;5091774;28;20032;-76
2023/07/04 07:11:16;;;;;;;24.25;5.10;;;;;;;16.12;85.02;101048.63;5079716;28;20089;-73
2023/07/04 07:13:42;;;;;;;20.42;4.35;;;;;;;16.17;82.81;101043.59;5089980;28;20032;-73
2023/07/04 07:16:09;;;;;;;18.05;4.65;;;;;;;16.26;86.14;101044.59;5081183;28;20035;-76
2023/07/04 07:18:35;;;;;;;17.20;4.43;;;;;;;16.34;85.85;101052.00;5083470;28;20525;-76
2023/07/04 07:21:02;;;;;;;23.20;5.00;;;;;;;16.34;80.48;101050.16;5067333;28;20046;-76
2023/07/04 07:23:29;;;;;;;20.10;4.05;;;;;;;16.38;83.11;101046.16;5088462;28;20032;-78
2023/07/04 07:25:59;;;;;;;17.67;4.95;;;;;;;16.42;82.81;101057.56;5069733;28;20047;-78
2023/07/04 07:28:26;;;;;;;16.95;4.65;;;;;;;16.43;79.80;101060.13;5075493;28;20048;-76
2023/07/04 07:31:09;;;;;;;22.95;6.18;;;;;;;16.48;81.96;101064.28;5099922;28;20020;-74
2023/07/04 07:33:36;;;;;;;21.15;5.43;;;;;;;16.53;81.42;101073.69;5066916;28;20032;-73
2023/07/04 07:36:21;;;;;;;18.60;4.65;;;;;;;16.59;79.66;101077.69;5074750;28;20981;-74
2023/07/04 07:38:47;;;;;;;19.42;4.80;;;;;;;16.63;77.92;101064.66;5089469;28;20028;-75
2023/07/04 07:41:14;;;;;;;18.45;5.72;;;;;;;16.62;76.22;101068.38;5074576;28;20316;-76
2023/07/04 07:43:41;;;;;;;18.30;5.28;;;;;;;16.61;73.75;101064.81;5097823;28;20028;-74
2023/07/04 07:46:11;;;;;;;24.70;6.03;;;;;;;16.67;75.12;101074.22;5067130;28;20111;-75
2023/07/04 07:48:37;;;;;;;15.75;5.30;;;;;;;16.71;75.25;101065.63;5065798;28;20048;-76
2023/07/04 07:51:03;;;;;;;20.85;5.85;;;;;;;16.75;72.07;101077.03;5088829;28;20043;-76
2023/07/04 07:53:28;;;;;;;18.13;5.72;;;;;;;16.80;73.32;101079.34;5090308;28;20099;-74
2023/07/04 07:55:53;;;;;;;25.50;6.10;;;;;;;16.86;75.00;101086.88;5075944;28;20143;-75
2023/07/04 07:58:19;;;;;;;15.48;4.47;;;;;;;16.89;73.11;101073.88;5068289;28;20034;-75
2023/07/04 08:00:44;;;;;;;18.20;4.93;;;;;;;16.97;73.55;101073.16;5068456;28;20509;-75
2023/07/04 08:03:09;;;;;;;31.15;6.22;;;;;;;17.03;72.98;101085.25;5068961;28;20032;-74
2023/07/04 08:05:40;;;;;;;17.70;4.85;;;;;;;17.09;74.47;101082.81;5087871;28;20392;-73
2023/07/04 08:08:06;;;;;;;24.58;5.43;;;;;;;17.10;72.71;101081.81;5091314;28;20520;-74
2023/07/04 08:10:40;;;;;;;17.55;5.03;;;;;;;17.16;73.35;101083.09;5090835;28;20020;-74
2023/07/04 08:13:05;;;;;;;15.57;4.53;;;;;;;17.19;70.31;101099.09;5100364;28;20047;-75
2023/07/04 08:15:31;;;;;;;21.55;5.38;;;;;;;17.23;70.90;101095.06;5066666;28;20100;-75
2023/07/04 08:17:56;;;;;;;18.38;5.00;;;;;;;17.27;67.31;101087.47;5074069;28;20047;-77
2023/07/04 08:20:23;;;;;;;18.50;4.53;;;;;;;17.32;67.77;101085.16;5070721;28;20107;-76
2023/07/04 08:22:48;;;;;;;16.63;4.43;;;;;;;17.40;71.03;101084.41;5075809;28;20021;-75
2023/07/04 08:25:14;;;;;;;19.40;4.53;;;;;;;17.47;70.93;101089.06;5062721;28;20030;-75
2023/07/04 08:27:39;;;;;;;17.55;4.07;;;;;;;17.51;66.37;101086.03;5075764;28;20045;-77
2023/07/04 08:30:08;;;;;;;18.52;4.72;;;;;;;17.54;67.45;101092.03;5062061;28;20027;-74
2023/07/04 08:32:34;;;;;;;17.00;4.03;;;;;;;17.56;64.96;101092.72;5078842;28;20111;-77
2023/07/04 08:35:00;;;;;;;16.05;4.20;;;;;;;17.56;63.63;101087.28;5070518;28;20203;-74
2023/07/04 08:37:25;;;;;;;17.67;3.78;;;;;;;17.58;63.90;101089.84;5061887;28;20089;-74
2023/07/04 08:39:51;;;;;;;17.45;4.22;;;;;;;17.59;63.20;101072.56;5080640;28;20032;-75
2023/07/04 08:42:18;;;;;;;20.00;4.07;;;;;;;17.65;64.94;101066.50;5065350;28;20028;-74
2023/07/04 08:44:47;;;;;;;15.20;3.67;;;;;;;17.69;63.70;101070.63;5074544;28;20437;-74
2023/07/04 08:47:19;;;;;;;15.70;4.03;;;;;;;17.71;61.19;101067.75;5072314;28;20024;-74
2023/07/04 08:49:57;;;;;;;9.32;3.05;;;;;;;17.76;64.03;101079.88;5072516;28;20024;-74
2023/07/04 08:52:43;;;;;;;16.17;3.92;;;;;;;17.84;63.16;101078.25;5081386;28;20038;-74
2023/07/04 08:55:12;;;;;;;15.70;4.25;;;;;;;17.90;63.06;101083.94;5074009;28;20063;-74
2023/07/04 08:57:58;;;;;;;13.57;3.17;;;;;;;17.93;60.91;101080.06;5063053;28;20016;-73
2023/07/04 09:00:32;;;;;;;15.20;3.67;;;;;;;17.93;59.08;101091.78;5069099;28;20123;-73
2023/07/04 09:03:19;;;;;;;14.85;3.53;;;;;;;17.98;61.32;101085.91;5050507;28;20117;-75
2023/07/04 09:06:05;;;;;;;16.05;3.45;;;;;;;18.02;60.76;101084.56;5069279;28;20040;-73
2023/07/04 09:08:38;;;;;;;14.25;4.00;;;;;;;18.05;58.50;101103.28;5051707;28;20024;-74
2023/07/04 09:11:08;;;;;;;15.95;4.25;;;;;;;18.11;58.91;101099.97;5070850;28;20024;-74
2023/07/04 09:13:39;;;;;;;13.48;3.83;;;;;;;18.17;57.23;101101.22;5051619;28;20111;-73
2023/07/04 09:16:09;;;;;;;11.10;3.30;;;;;;;18.20;59.61;101100.03;5076275;28;20035;-73
2023/07/04 09:18:53;;;;;;;16.23;4.38;;;;;;;18.26;60.16;101110.28;5062332;28;20119;-73
2023/07/04 09:21:21;;;;;;;17.85;4.47;;;;;;;18.32;61.71;101104.22;5080208;28;20070;-72
2023/07/04 09:23:48;;;;;;;16.60;4.68;;;;;;;18.34;59.85;101108.47;5081925;28;20097;-73
2023/07/04 09:26:25;;;;;;;16.45;5.07;;;;;;;18.41;58.34;101108.72;5083896;28;20102;-72
2023/07/04 09:28:52;;;;;;;16.85;4.22;;;;;;;18.49;59.64;101116.09;5064549;28;20457;-76
2023/07/04 09:31:24;;;;;;;20.67;4.97;;;;;;;18.43;57.09;101109.41;5080527;28;20032;-73
2023/07/04 09:33:52;;;;;;;21.42;5.43;;;;;;;18.38;57.33;101117.19;5085028;28;20024;-73
2023/07/04 09:36:19;;;;;;;15.32;4.93;;;;;;;18.47;62.18;101129.84;5079796;28;20016;-74
2023/07/04 09:38:58;;;;;;;16.58;5.00;;;;;;;18.54;60.28;101123.78;5079861;28;20037;-74
2023/07/04 09:41:31;;;;;;;15.90;5.10;;;;;;;18.55;57.06;101120.91;5055513;28;20427;-75
2023/07/04 09:44:26;;;;;;;16.42;5.95;;;;;;;18.61;58.36;101125.72;5080665;28;20032;-74
2023/07/04 09:46:53;;;;;;;17.48;4.82;;;;;;;18.58;57.13;101119.72;5082716;28;20024;-75
2023/07/04 09:49:27;;;;;;;16.85;4.90;;;;;;;18.52;57.27;101127.53;5079232;28;20040;-74
2023/07/04 09:52:16;;;;;;;14.55;4.47;;;;;;;18.59;60.38;101125.00;5072843;28;20040;-74
2023/07/04 09:54:42;;;;;;;18.33;4.97;;;;;;;18.61;60.78;101119.41;5056308;28;20056;-75
2023/07/04 09:57:34;;;;;;;15.00;4.78;;;;;;;18.65;57.54;101126.25;5077763;28;20031;-74
2023/07/04 10:00:24;;;;;;;14.63;4.07;;;;;;;18.74;57.28;101125.31;5055844;28;20384;-74
2023/07/04 10:02:54;;;;;;;14.80;4.03;;;;;;;18.79;53.42;101130.28;5070710;28;20484;-73
2023/07/04 10:05:29;;;;;;;12.70;3.90;;;;;;;18.86;54.68;101128.66;5059901;28;20035;-76
2023/07/04 10:08:04;;;;;;;13.88;3.92;;;;;;;18.86;54.33;101121.34;5070607;28;20252;-75
2023/07/04 10:10:32;;;;;;;12.82;4.55;;;;;;;18.85;54.87;101126.91;5080168;28;20450;-75
2023/07/04 10:12:58;;;;;;;17.35;4.55;;;;;;;18.88;56.73;101129.34;5058733;28;20429;-73
2023/07/04 10:15:26;;;;;;;17.90;3.95;;;;;;;18.90;56.30;101123.72;5056241;28;20222;-75
2023/07/04 10:17:52;;;;;;;13.48;3.78;;;;;;;18.95;57.77;101127.69;5065190;28;20091;-73
2023/07/04 10:20:18;;;;;;;16.55;4.03;;;;;;;18.94;56.94;101120.53;5078767;28;20036;-71
2023/07/04 10:22:52;;;;;;;13.30;4.07;;;;;;;18.94;57.56;101116.94;5062861;28;20035;-74
2023/07/04 10:25:22;;;;;;;13.32;3.50;;;;;;;18.98;57.38;101119.19;5074950;28;20039;-76
2023/07/04 10:27:51;;;;;;;15.75;4.15;;;;;;;19.01;55.72;101121.59;5080713;28;20029;-75
2023/07/04 10:30:22;;;;;;;20.55;4.45;;;;;;;19.11;57.24;101123.38;5058284;28;20111;-73
2023/07/04 10:33:03;;;;;;;14.52;4.03;;;;;;;19.16;57.64;101121.84;5073204;28;20081;-74
2023/07/04 10:35:31;;;;;;;12.38;3.80;;;;;;;19.23;54.07;101124.78;5056055;28;20501;-75
2023/07/04 10:38:06;;;;;;;13.18;4.00;;;;;;;19.23;52.58;101123.94;5075031;28;20036;-73
2023/07/04 10:40:33;;;;;;;16.48;4.00;;;;;;;19.27;53.44;101120.72;5080487;28;21084;-76
2023/07/04 10:43:05;;;;;;;12.55;3.28;;;;;;;19.29;55.27;101129.56;5076360;28;20115;-77
2023/07/04 10:45:34;;;;;;;14.35;3.85;;;;;;;19.36;56.56;101133.34;5080717;28;20026;-83
2023/07/04 10:48:04;;;;;;;10.35;3.15;;;;;;;19.44;54.20;101126.22;5063303;28;20380;-77
2023/07/04 10:50:50;;;;;;;13.82;3.28;;;;;;;19.47;53.40;101124.00;5084449;28;20032;-78
2023/07/04 10:53:18;;;;;;;12.98;3.83;;;;;;;19.58;54.98;101125.59;5076042;28;20028;-77
2023/07/04 10:55:56;;;;;;;17.00;3.42;;;;;;;19.69;57.64;101129.91;5065512;28;20031;-76
2023/07/04 10:58:25;;;;;;;14.95;3.28;;;;;;;19.69;52.92;101133.50;5057130;28;20039;-78
2023/07/04 11:00:56;;;;;;;15.23;3.67;;;;;;;19.67;53.75;101126.50;5058680;28;20035;-78
2023/07/04 11:03:49;;;;;;;13.80;3.28;;;;;;;19.65;55.30;101131.22;5079306;28;20032;-79
2023/07/04 11:06:29;;;;;;;13.38;3.70;;;;;;;19.63;54.27;101130.56;5082638;28;20035;-87
2023/07/04 11:08:55;;;;;;;14.98;3.53;;;;;;;19.62;52.16;101129.72;5062606;28;20077;-78
2023/07/04 11:11:29;;;;;;;14.02;3.38;;;;;;;19.61;52.45;101127.16;5075557;28;20028;-77
2023/07/04 11:14:01;;;;;;;13.27;3.10;;;;;;;19.65;52.74;101131.22;5078206;28;20036;-78
2023/07/04 11:16:29;;;;;;;8.70;2.75;;;;;;;19.78;55.48;101130.78;5079895;28;20032;-76
2023/07/04 11:19:04;;;;;;;16.77;3.47;;;;;;;19.78;53.79;101128.94;5075985;28;20467;-77